sensor_id;sensor_type;location;lat;lon;timestamp;P1;durP1;ratioP1;P2;durP2;ratioP2
13868;SDS011;7004;48.206;16.402;2024-03-07T00:00:44;15.87;;;12.13;;
13868;SDS011;7004;48.206;16.402;2024-03-07T00:03:14;15.43;;;12.43;;
13868;SDS011;7004;48.206;16.402;2024-03-07T00:05:41;14.07;;;11.57;;
13868;SDS011;7004;48.206;16.402;2024-03-07T00:08:09;15.33;;;11.87;;
13868;SDS011;7004;48.206;16.402;2024-03-07T00:10:35;15.03;;;11.77;;
13868;SDS011;7004;48.206;16.402;2024-03-07T00:13:04;13.83;;;11.40;;
13868;SDS011;7004;48.206;16.402;2024-03-07T00:15:33;14.80;;;11.83;;
13868;SDS011;7004;48.206;16.402;2024-03-07T00:18:00;14.60;;;12.13;;
13868;SDS011;7004;48.206;16.402;2024-03-07T00:20:27;16.30;;;12.77;;
13868;SDS011;7004;48.206;16.402;2024-03-07T00:22:56;16.07;;;11.80;;
13868;SDS011;7004;48.206;16.402;2024-03-07T00:25:22;16.10;;;12.00;;
13868;SDS011;7004;48.206;16.402;2024-03-07T00:27:48;14.83;;;12.27;;
13868;SDS011;7004;48.206;16.402;2024-03-07T00:30:18;16.33;;;12.60;;
13868;SDS011;7004;48.206;16.402;2024-03-07T00:32:50;16.33;;;12.37;;
13868;SDS011;7004;48.206;16.402;2024-03-07T00:35:21;15.27;;;12.20;;
13868;SDS011;7004;48.206;16.402;2024-03-07T00:37:53;14.93;;;11.60;;
13868;SDS011;7004;48.206;16.402;2024-03-07T00:40:19;14.27;;;12.03;;
13868;SDS011;7004;48.206;16.402;2024-03-07T00:42:47;15.40;;;12.20;;
13868;SDS011;7004;48.206;16.402;2024-03-07T00:45:14;15.53;;;12.33;;
13868;SDS011;7004;48.206;16.402;2024-03-07T00:47:42;15.40;;;12.30;;
13868;SDS011;7004;48.206;16.402;2024-03-07T00:50:08;15.07;;;12.63;;
13868;SDS011;7004;48.206;16.402;2024-03-07T00:52:36;16.97;;;12.23;;
13868;SDS011;7004;48.206;16.402;2024-03-07T00:55:05;16.37;;;12.37;;
13868;SDS011;7004;48.206;16.402;2024-03-07T00:57:35;16.53;;;12.33;;
13868;SDS011;7004;48.206;16.402;2024-03-07T01:00:02;15.83;;;11.80;;
13868;SDS011;7004;48.206;16.402;2024-03-07T01:02:29;17.93;;;12.90;;
13868;SDS011;7004;48.206;16.402;2024-03-07T01:04:57;16.27;;;11.97;;
13868;SDS011;7004;48.206;16.402;2024-03-07T01:07:23;15.70;;;11.67;;
13868;SDS011;7004;48.206;16.402;2024-03-07T01:09:51;17.23;;;12.03;;
13868;SDS011;7004;48.206;16.402;2024-03-07T01:12:18;17.50;;;11.80;;
13868;SDS011;7004;48.206;16.402;2024-03-07T01:14:50;16.70;;;11.80;;
13868;SDS011;7004;48.206;16.402;2024-03-07T01:17:17;17.60;;;12.13;;
13868;SDS011;7004;48.206;16.402;2024-03-07T01:19:44;16.83;;;12.60;;
13868;SDS011;7004;48.206;16.402;2024-03-07T01:22:14;16.90;;;12.57;;
13868;SDS011;7004;48.206;16.402;2024-03-07T01:24:41;16.57;;;12.13;;
13868;SDS011;7004;48.206;16.402;2024-03-07T01:27:08;14.47;;;11.80;;
13868;SDS011;7004;48.206;16.402;2024-03-07T01:29:35;15.23;;;11.30;;
13868;SDS011;7004;48.206;16.402;2024-03-07T01:32:03;16.23;;;11.87;;
13868;SDS011;7004;48.206;16.402;2024-03-07T01:34:29;16.63;;;11.93;;
13868;SDS011;7004;48.206;16.402;2024-03-07T01:36:59;15.57;;;11.43;;
13868;SDS011;7004;48.206;16.402;2024-03-07T01:39:26;17.67;;;12.33;;
13868;SDS011;7004;48.206;16.402;2024-03-07T01:41:52;15.80;;;11.47;;
13868;SDS011;7004;48.206;16.402;2024-03-07T01:44:20;18.33;;;12.03;;
13868;SDS011;7004;48.206;16.402;2024-03-07T01:46:47;15.67;;;11.60;;
13868;SDS011;7004;48.206;16.402;2024-03-07T01:49:16;17.43;;;12.80;;
13868;SDS011;7004;48.206;16.402;2024-03-07T01:51:42;19.40;;;12.30;;
13868;SDS011;7004;48.206;16.402;2024-03-07T01:54:09;17.10;;;11.33;;
13868;SDS011;7004;48.206;16.402;2024-03-07T01:56:38;17.03;;;11.27;;
13868;SDS011;7004;48.206;16.402;2024-03-07T01:59:05;16.37;;;12.07;;
13868;SDS011;7004;48.206;16.402;2024-03-07T02:01:33;15.83;;;11.27;;
13868;SDS011;7004;48.206;16.402;2024-03-07T02:04:02;16.53;;;11.27;;
13868;SDS011;7004;48.206;16.402;2024-03-07T02:06:28;15.33;;;11.03;;
13868;SDS011;7004;48.206;16.402;2024-03-07T02:08:56;16.83;;;12.20;;
13868;SDS011;7004;48.206;16.402;2024-03-07T02:11:23;16.43;;;13.17;;
13868;SDS011;7004;48.206;16.402;2024-03-07T02:13:50;15.70;;;12.17;;
13868;SDS011;7004;48.206;16.402;2024-03-07T02:16:17;20.57;;;13.53;;
13868;SDS011;7004;48.206;16.402;2024-03-07T02:18:43;17.47;;;13.40;;
13868;SDS011;7004;48.206;16.402;2024-03-07T02:21:10;22.50;;;14.77;;
13868;SDS011;7004;48.206;16.402;2024-03-07T02:23:37;20.17;;;14.73;;
13868;SDS011;7004;48.206;16.402;2024-03-07T02:26:04;22.07;;;15.27;;
13868;SDS011;7004;48.206;16.402;2024-03-07T02:28:30;22.07;;;15.17;;
13868;SDS011;7004;48.206;16.402;2024-03-07T02:30:59;20.33;;;15.10;;
13868;SDS011;7004;48.206;16.402;2024-03-07T02:33:25;19.60;;;14.50;;
13868;SDS011;7004;48.206;16.402;2024-03-07T02:35:52;18.20;;;13.67;;
13868;SDS011;7004;48.206;16.402;2024-03-07T02:38:18;20.73;;;14.83;;
13868;SDS011;7004;48.206;16.402;2024-03-07T02:40:45;21.40;;;14.50;;
13868;SDS011;7004;48.206;16.402;2024-03-07T02:43:15;20.13;;;14.20;;
13868;SDS011;7004;48.206;16.402;2024-03-07T02:45:41;22.50;;;14.50;;
13868;SDS011;7004;48.206;16.402;2024-03-07T02:48:07;24.23;;;14.83;;
13868;SDS011;7004;48.206;16.402;2024-03-07T02:50:35;21.23;;;15.50;;
13868;SDS011;7004;48.206;16.402;2024-03-07T02:53:05;21.80;;;14.80;;
13868;SDS011;7004;48.206;16.402;2024-03-07T02:55:32;23.57;;;14.63;;
13868;SDS011;7004;48.206;16.402;2024-03-07T02:58:00;21.50;;;14.20;;
13868;SDS011;7004;48.206;16.402;2024-03-07T03:00:26;19.20;;;13.60;;
13868;SDS011;7004;48.206;16.402;2024-03-07T03:02:55;21.13;;;13.50;;
13868;SDS011;7004;48.206;16.402;2024-03-07T03:05:22;20.50;;;14.57;;
13868;SDS011;7004;48.206;16.402;2024-03-07T03:07:52;20.47;;;14.40;;
13868;SDS011;7004;48.206;16.402;2024-03-07T03:10:22;19.30;;;13.30;;
13868;SDS011;7004;48.206;16.402;2024-03-07T03:13:00;18.80;;;13.77;;
13868;SDS011;7004;48.206;16.402;2024-03-07T03:15:29;19.67;;;14.13;;
13868;SDS011;7004;48.206;16.402;2024-03-07T03:17:58;18.10;;;13.27;;
13868;SDS011;7004;48.206;16.402;2024-03-07T03:20:25;19.10;;;13.37;;
13868;SDS011;7004;48.206;16.402;2024-03-07T03:23:00;19.47;;;13.33;;
13868;SDS011;7004;48.206;16.402;2024-03-07T03:25:30;18.77;;;13.10;;
13868;SDS011;7004;48.206;16.402;2024-03-07T03:28:06;20.07;;;13.67;;
13868;SDS011;7004;48.206;16.402;2024-03-07T03:30:37;20.73;;;13.30;;
13868;SDS011;7004;48.206;16.402;2024-03-07T03:33:05;17.33;;;12.33;;
13868;SDS011;7004;48.206;16.402;2024-03-07T03:35:33;18.43;;;12.47;;
13868;SDS011;7004;48.206;16.402;2024-03-07T03:38:00;18.23;;;12.77;;
13868;SDS011;7004;48.206;16.402;2024-03-07T03:40:28;18.50;;;12.73;;
13868;SDS011;7004;48.206;16.402;2024-03-07T03:42:54;17.73;;;13.60;;
13868;SDS011;7004;48.206;16.402;2024-03-07T03:45:22;18.70;;;11.53;;
13868;SDS011;7004;48.206;16.402;2024-03-07T03:47:59;15.83;;;11.33;;
13868;SDS011;7004;48.206;16.402;2024-03-07T03:50:26;17.67;;;12.77;;
13868;SDS011;7004;48.206;16.402;2024-03-07T03:52:55;18.77;;;12.83;;
13868;SDS011;7004;48.206;16.402;2024-03-07T03:55:24;16.43;;;11.80;;
13868;SDS011;7004;48.206;16.402;2024-03-07T03:57:56;18.90;;;12.20;;
13868;SDS011;7004;48.206;16.402;2024-03-07T04:00:23;16.83;;;11.63;;
13868;SDS011;7004;48.206;16.402;2024-03-07T04:02:49;15.33;;;11.57;;
13868;SDS011;7004;48.206;16.402;2024-03-07T04:05:16;15.63;;;10.90;;
13868;SDS011;7004;48.206;16.402;2024-03-07T04:07:45;15.37;;;11.23;;
13868;SDS011;7004;48.206;16.402;2024-03-07T04:10:12;18.53;;;12.10;;
13868;SDS011;7004;48.206;16.402;2024-03-07T04:12:41;19.07;;;11.27;;
13868;SDS011;7004;48.206;16.402;2024-03-07T04:15:08;17.30;;;12.10;;
13868;SDS011;7004;48.206;16.402;2024-03-07T04:17:37;14.83;;;11.23;;
13868;SDS011;7004;48.206;16.402;2024-03-07T04:20:06;15.73;;;11.20;;
13868;SDS011;7004;48.206;16.402;2024-03-07T04:22:37;15.30;;;11.43;;
13868;SDS011;7004;48.206;16.402;2024-03-07T04:25:07;18.20;;;11.67;;
13868;SDS011;7004;48.206;16.402;2024-03-07T04:27:34;17.07;;;12.17;;
13868;SDS011;7004;48.206;16.402;2024-03-07T04:30:06;18.80;;;11.83;;
13868;SDS011;7004;48.206;16.402;2024-03-07T04:32:38;16.73;;;11.60;;
13868;SDS011;7004;48.206;16.402;2024-03-07T04:35:05;17.00;;;10.93;;
13868;SDS011;7004;48.206;16.402;2024-03-07T04:37:33;18.70;;;11.23;;
13868;SDS011;7004;48.206;16.402;2024-03-07T04:40:04;16.23;;;10.53;;
13868;SDS011;7004;48.206;16.402;2024-03-07T04:42:45;16.70;;;11.23;;
13868;SDS011;7004;48.206;16.402;2024-03-07T04:45:14;16.20;;;11.07;;
13868;SDS011;7004;48.206;16.402;2024-03-07T04:47:42;13.77;;;10.73;;
13868;SDS011;7004;48.206;16.402;2024-03-07T04:50:13;15.70;;;10.83;;
13868;SDS011;7004;48.206;16.402;2024-03-07T04:52:43;15.87;;;11.27;;
13868;SDS011;7004;48.206;16.402;2024-03-07T04:55:10;15.20;;;10.87;;
13868;SDS011;7004;48.206;16.402;2024-03-07T04:57:37;17.43;;;11.40;;
13868;SDS011;7004;48.206;16.402;2024-03-07T05:00:08;14.77;;;10.40;;
13868;SDS011;7004;48.206;16.402;2024-03-07T05:02:41;16.03;;;11.07;;
13868;SDS011;7004;48.206;16.402;2024-03-07T05:05:07;15.50;;;11.00;;
13868;SDS011;7004;48.206;16.402;2024-03-07T05:07:33;16.27;;;11.23;;
13868;SDS011;7004;48.206;16.402;2024-03-07T05:10:03;17.10;;;11.50;;
13868;SDS011;7004;48.206;16.402;2024-03-07T05:12:31;16.90;;;11.33;;
13868;SDS011;7004;48.206;16.402;2024-03-07T05:14:58;14.47;;;10.63;;
13868;SDS011;7004;48.206;16.402;2024-03-07T05:17:25;16.73;;;10.97;;
13868;SDS011;7004;48.206;16.402;2024-03-07T05:19:51;21.67;;;11.47;;
13868;SDS011;7004;48.206;16.402;2024-03-07T05:22:18;16.53;;;11.73;;
13868;SDS011;7004;48.206;16.402;2024-03-07T05:24:47;13.87;;;11.37;;
13868;SDS011;7004;48.206;16.402;2024-03-07T05:27:16;17.17;;;11.53;;
13868;SDS011;7004;48.206;16.402;2024-03-07T05:29:43;15.10;;;10.90;;
13868;SDS011;7004;48.206;16.402;2024-03-07T05:32:22;15.57;;;11.17;;
13868;SDS011;7004;48.206;16.402;2024-03-07T05:34:53;16.20;;;11.97;;
13868;SDS011;7004;48.206;16.402;2024-03-07T05:37:20;16.90;;;12.10;;
13868;SDS011;7004;48.206;16.402;2024-03-07T05:39:50;16.87;;;12.20;;
13868;SDS011;7004;48.206;16.402;2024-03-07T05:42:17;16.57;;;12.03;;
13868;SDS011;7004;48.206;16.402;2024-03-07T05:44:44;17.83;;;12.23;;
13868;SDS011;7004;48.206;16.402;2024-03-07T05:47:11;19.77;;;12.27;;
13868;SDS011;7004;48.206;16.402;2024-03-07T05:49:38;17.13;;;12.50;;
13868;SDS011;7004;48.206;16.402;2024-03-07T05:52:06;16.33;;;12.00;;
13868;SDS011;7004;48.206;16.402;2024-03-07T05:54:33;16.67;;;12.37;;
13868;SDS011;7004;48.206;16.402;2024-03-07T05:57:00;16.37;;;12.47;;
13868;SDS011;7004;48.206;16.402;2024-03-07T05:59:27;15.33;;;12.07;;
13868;SDS011;7004;48.206;16.402;2024-03-07T06:01:57;17.53;;;12.73;;
13868;SDS011;7004;48.206;16.402;2024-03-07T06:04:23;16.87;;;11.97;;
13868;SDS011;7004;48.206;16.402;2024-03-07T06:06:49;17.03;;;12.67;;
13868;SDS011;7004;48.206;16.402;2024-03-07T06:09:16;17.37;;;11.53;;
13868;SDS011;7004;48.206;16.402;2024-03-07T06:11:46;15.60;;;12.00;;
13868;SDS011;7004;48.206;16.402;2024-03-07T06:14:14;16.57;;;12.03;;
13868;SDS011;7004;48.206;16.402;2024-03-07T06:16:41;16.23;;;12.03;;
13868;SDS011;7004;48.206;16.402;2024-03-07T06:19:08;15.83;;;11.80;;
13868;SDS011;7004;48.206;16.402;2024-03-07T06:21:35;16.47;;;11.27;;
13868;SDS011;7004;48.206;16.402;2024-03-07T06:24:02;16.57;;;11.40;;
13868;SDS011;7004;48.206;16.402;2024-03-07T06:26:31;19.30;;;12.03;;
13868;SDS011;7004;48.206;16.402;2024-03-07T06:29:24;20.17;;;11.13;;
13868;SDS011;7004;48.206;16.402;2024-03-07T06:31:54;16.60;;;11.27;;
13868;SDS011;7004;48.206;16.402;2024-03-07T06:34:20;16.63;;;12.03;;
13868;SDS011;7004;48.206;16.402;2024-03-07T06:36:46;17.50;;;12.80;;
13868;SDS011;7004;48.206;16.402;2024-03-07T06:39:12;15.97;;;11.13;;
13868;SDS011;7004;48.206;16.402;2024-03-07T06:41:39;17.67;;;11.90;;
13868;SDS011;7004;48.206;16.402;2024-03-07T06:44:06;16.90;;;12.17;;
13868;SDS011;7004;48.206;16.402;2024-03-07T06:46:32;17.07;;;12.33;;
13868;SDS011;7004;48.206;16.402;2024-03-07T06:48:59;16.97;;;11.57;;
13868;SDS011;7004;48.206;16.402;2024-03-07T06:51:26;16.67;;;12.00;;
13868;SDS011;7004;48.206;16.402;2024-03-07T06:53:52;18.57;;;12.73;;
13868;SDS011;7004;48.206;16.402;2024-03-07T06:56:18;18.17;;;11.90;;
13868;SDS011;7004;48.206;16.402;2024-03-07T06:58:44;19.17;;;11.80;;
13868;SDS011;7004;48.206;16.402;2024-03-07T07:01:11;16.77;;;11.60;;
13868;SDS011;7004;48.206;16.402;2024-03-07T07:03:41;17.80;;;12.20;;
13868;SDS011;7004;48.206;16.402;2024-03-07T07:06:10;16.57;;;12.13;;
13868;SDS011;7004;48.206;16.402;2024-03-07T07:08:37;16.47;;;12.33;;
13868;SDS011;7004;48.206;16.402;2024-03-07T07:11:03;15.53;;;12.23;;
13868;SDS011;7004;48.206;16.402;2024-03-07T07:13:29;17.60;;;12.50;;
13868;SDS011;7004;48.206;16.402;2024-03-07T07:15:56;18.60;;;12.50;;
13868;SDS011;7004;48.206;16.402;2024-03-07T07:18:23;17.47;;;11.50;;
13868;SDS011;7004;48.206;16.402;2024-03-07T07:20:49;16.50;;;12.13;;
13868;SDS011;7004;48.206;16.402;2024-03-07T07:23:19;16.50;;;11.67;;
13868;SDS011;7004;48.206;16.402;2024-03-07T07:25:45;25.27;;;12.23;;
13868;SDS011;7004;48.206;16.402;2024-03-07T07:28:12;16.83;;;12.00;;
13868;SDS011;7004;48.206;16.402;2024-03-07T07:30:38;15.70;;;12.20;;
13868;SDS011;7004;48.206;16.402;2024-03-07T07:33:05;16.57;;;12.53;;
13868;SDS011;7004;48.206;16.402;2024-03-07T07:35:31;15.53;;;11.40;;
13868;SDS011;7004;48.206;16.402;2024-03-07T07:37:58;16.60;;;12.27;;
13868;SDS011;7004;48.206;16.402;2024-03-07T07:40:25;16.70;;;12.20;;
13868;SDS011;7004;48.206;16.402;2024-03-07T07:42:52;16.33;;;12.00;;
13868;SDS011;7004;48.206;16.402;2024-03-07T07:45:20;15.37;;;11.53;;
13868;SDS011;7004;48.206;16.402;2024-03-07T07:47:48;16.73;;;11.67;;
13868;SDS011;7004;48.206;16.402;2024-03-07T07:50:17;18.87;;;11.57;;
13868;SDS011;7004;48.206;16.402;2024-03-07T07:52:55;17.27;;;11.47;;
13868;SDS011;7004;48.206;16.402;2024-03-07T07:55:28;17.37;;;12.57;;
13868;SDS011;7004;48.206;16.402;2024-03-07T07:57:56;16.47;;;11.90;;
13868;SDS011;7004;48.206;16.402;2024-03-07T08:00:25;16.73;;;11.80;;
13868;SDS011;7004;48.206;16.402;2024-03-07T08:03:03;14.70;;;11.20;;
13868;SDS011;7004;48.206;16.402;2024-03-07T08:05:35;13.77;;;10.97;;
13868;SDS011;7004;48.206;16.402;2024-03-07T08:08:04;17.00;;;11.30;;
13868;SDS011;7004;48.206;16.402;2024-03-07T08:10:33;15.90;;;10.50;;
13868;SDS011;7004;48.206;16.402;2024-03-07T08:13:01;15.37;;;10.70;;
13868;SDS011;7004;48.206;16.402;2024-03-07T08:15:29;13.57;;;10.23;;
13868;SDS011;7004;48.206;16.402;2024-03-07T08:17:56;13.00;;;10.30;;
13868;SDS011;7004;48.206;16.402;2024-03-07T08:20:24;15.03;;;10.50;;
13868;SDS011;7004;48.206;16.402;2024-03-07T08:22:52;15.30;;;10.47;;
13868;SDS011;7004;48.206;16.402;2024-03-07T08:25:21;14.13;;;9.53;;
13868;SDS011;7004;48.206;16.402;2024-03-07T08:27:52;13.57;;;9.90;;
13868;SDS011;7004;48.206;16.402;2024-03-07T08:30:24;16.70;;;10.03;;
13868;SDS011;7004;48.206;16.402;2024-03-07T08:32:53;13.93;;;9.60;;
13868;SDS011;7004;48.206;16.402;2024-03-07T08:35:21;13.37;;;9.73;;
13868;SDS011;7004;48.206;16.402;2024-03-07T08:37:48;13.80;;;9.50;;
13868;SDS011;7004;48.206;16.402;2024-03-07T08:40:20;13.83;;;10.00;;
13868;SDS011;7004;48.206;16.402;2024-03-07T08:42:52;12.63;;;10.20;;
13868;SDS011;7004;48.206;16.402;2024-03-07T08:45:21;13.00;;;10.30;;
13868;SDS011;7004;48.206;16.402;2024-03-07T08:47:49;13.90;;;9.73;;
13868;SDS011;7004;48.206;16.402;2024-03-07T08:50:17;15.33;;;10.20;;
13868;SDS011;7004;48.206;16.402;2024-03-07T08:52:44;16.10;;;9.93;;
13868;SDS011;7004;48.206;16.402;2024-03-07T08:55:12;18.67;;;10.87;;
13868;SDS011;7004;48.206;16.402;2024-03-07T08:57:41;18.40;;;11.03;;
13868;SDS011;7004;48.206;16.402;2024-03-07T09:00:09;15.90;;;10.57;;
13868;SDS011;7004;48.206;16.402;2024-03-07T09:02:54;15.73;;;10.83;;
13868;SDS011;7004;48.206;16.402;2024-03-07T09:05:25;15.90;;;11.10;;
13868;SDS011;7004;48.206;16.402;2024-03-07T09:07:57;15.60;;;10.53;;
13868;SDS011;7004;48.206;16.402;2024-03-07T09:10:24;13.10;;;10.27;;
13868;SDS011;7004;48.206;16.402;2024-03-07T09:12:51;17.07;;;10.73;;
13868;SDS011;7004;48.206;16.402;2024-03-07T09:15:17;15.70;;;10.63;;
13868;SDS011;7004;48.206;16.402;2024-03-07T09:17:46;12.30;;;8.63;;
13868;SDS011;7004;48.206;16.402;2024-03-07T09:20:12;14.20;;;9.93;;
13868;SDS011;7004;48.206;16.402;2024-03-07T09:22:42;12.33;;;9.13;;
13868;SDS011;7004;48.206;16.402;2024-03-07T09:25:09;12.17;;;8.60;;
13868;SDS011;7004;48.206;16.402;2024-03-07T09:27:38;11.00;;;8.00;;
13868;SDS011;7004;48.206;16.402;2024-03-07T09:30:08;12.70;;;8.80;;
13868;SDS011;7004;48.206;16.402;2024-03-07T09:32:56;18.90;;;10.50;;
13868;SDS011;7004;48.206;16.402;2024-03-07T09:35:22;16.87;;;11.90;;
13868;SDS011;7004;48.206;16.402;2024-03-07T09:37:50;16.10;;;11.40;;
13868;SDS011;7004;48.206;16.402;2024-03-07T09:40:16;16.33;;;11.70;;
13868;SDS011;7004;48.206;16.402;2024-03-07T09:42:43;17.47;;;11.37;;
13868;SDS011;7004;48.206;16.402;2024-03-07T09:45:15;15.87;;;11.77;;
13868;SDS011;7004;48.206;16.402;2024-03-07T09:47:44;15.53;;;11.70;;
13868;SDS011;7004;48.206;16.402;2024-03-07T09:50:13;16.87;;;11.77;;
13868;SDS011;7004;48.206;16.402;2024-03-07T09:52:47;18.50;;;12.03;;
13868;SDS011;7004;48.206;16.402;2024-03-07T09:55:17;17.37;;;12.77;;
13868;SDS011;7004;48.206;16.402;2024-03-07T09:57:46;18.47;;;12.53;;
13868;SDS011;7004;48.206;16.402;2024-03-07T10:00:15;16.07;;;11.67;;
13868;SDS011;7004;48.206;16.402;2024-03-07T10:02:51;17.33;;;12.20;;
13868;SDS011;7004;48.206;16.402;2024-03-07T10:05:26;16.87;;;12.57;;
13868;SDS011;7004;48.206;16.402;2024-03-07T10:07:53;18.03;;;13.03;;
13868;SDS011;7004;48.206;16.402;2024-03-07T10:10:20;17.70;;;13.33;;
13868;SDS011;7004;48.206;16.402;2024-03-07T10:12:47;17.23;;;13.07;;
13868;SDS011;7004;48.206;16.402;2024-03-07T10:15:15;18.57;;;13.07;;
13868;SDS011;7004;48.206;16.402;2024-03-07T10:17:43;21.53;;;13.97;;
13868;SDS011;7004;48.206;16.402;2024-03-07T10:20:12;17.83;;;13.73;;
13868;SDS011;7004;48.206;16.402;2024-03-07T10:22:41;18.73;;;13.30;;
13868;SDS011;7004;48.206;16.402;2024-03-07T10:25:07;18.40;;;13.20;;
13868;SDS011;7004;48.206;16.402;2024-03-07T10:27:36;19.00;;;12.47;;
13868;SDS011;7004;48.206;16.402;2024-03-07T10:30:03;18.70;;;14.20;;
13868;SDS011;7004;48.206;16.402;2024-03-07T10:32:33;21.10;;;14.30;;
13868;SDS011;7004;48.206;16.402;2024-03-07T10:34:59;22.27;;;15.67;;
13868;SDS011;7004;48.206;16.402;2024-03-07T10:37:25;23.10;;;15.97;;
13868;SDS011;7004;48.206;16.402;2024-03-07T10:39:51;22.03;;;15.77;;
13868;SDS011;7004;48.206;16.402;2024-03-07T10:42:18;19.47;;;14.07;;
13868;SDS011;7004;48.206;16.402;2024-03-07T10:44:47;22.93;;;14.13;;
13868;SDS011;7004;48.206;16.402;2024-03-07T10:47:20;20.20;;;14.53;;
13868;SDS011;7004;48.206;16.402;2024-03-07T10:49:59;20.43;;;13.97;;
13868;SDS011;7004;48.206;16.402;2024-03-07T10:52:54;24.77;;;16.53;;
13868;SDS011;7004;48.206;16.402;2024-03-07T10:55:46;23.33;;;16.63;;
13868;SDS011;7004;48.206;16.402;2024-03-07T10:58:27;22.50;;;15.93;;
13868;SDS011;7004;48.206;16.402;2024-03-07T11:01:22;24.23;;;17.93;;
13868;SDS011;7004;48.206;16.402;2024-03-07T11:03:51;25.53;;;16.80;;
13868;SDS011;7004;48.206;16.402;2024-03-07T11:06:18;25.27;;;17.97;;
13868;SDS011;7004;48.206;16.402;2024-03-07T11:08:45;24.63;;;17.37;;
13868;SDS011;7004;48.206;16.402;2024-03-07T11:11:12;29.17;;;16.30;;
13868;SDS011;7004;48.206;16.402;2024-03-07T11:13:39;24.63;;;17.13;;
13868;SDS011;7004;48.206;16.402;2024-03-07T11:16:06;27.07;;;17.13;;
13868;SDS011;7004;48.206;16.402;2024-03-07T11:18:35;24.43;;;17.07;;
13868;SDS011;7004;48.206;16.402;2024-03-07T11:21:01;23.27;;;17.00;;
13868;SDS011;7004;48.206;16.402;2024-03-07T11:23:30;26.40;;;16.87;;
13868;SDS011;7004;48.206;16.402;2024-03-07T11:28:37;27.47;;;16.77;;
13868;SDS011;7004;48.206;16.402;2024-03-07T11:31:14;26.17;;;17.10;;
13868;SDS011;7004;48.206;16.402;2024-03-07T11:36:44;25.97;;;16.70;;
13868;SDS011;7004;48.206;16.402;2024-03-07T11:39:57;27.07;;;17.67;;
13868;SDS011;7004;48.206;16.402;2024-03-07T11:42:08;23.57;;;16.37;;
13868;SDS011;7004;48.206;16.402;2024-03-07T11:44:35;32.57;;;18.70;;
13868;SDS011;7004;48.206;16.402;2024-03-07T11:47:05;26.33;;;18.30;;
13868;SDS011;7004;48.206;16.402;2024-03-07T11:49:34;25.63;;;17.40;;
13868;SDS011;7004;48.206;16.402;2024-03-07T11:52:01;26.77;;;17.67;;
13868;SDS011;7004;48.206;16.402;2024-03-07T11:54:39;28.40;;;18.23;;
13868;SDS011;7004;48.206;16.402;2024-03-07T11:57:11;27.50;;;18.80;;
13868;SDS011;7004;48.206;16.402;2024-03-07T11:59:40;30.13;;;19.47;;
13868;SDS011;7004;48.206;16.402;2024-03-07T12:02:14;27.60;;;19.50;;
13868;SDS011;7004;48.206;16.402;2024-03-07T12:04:41;27.17;;;19.83;;
13868;SDS011;7004;48.206;16.402;2024-03-07T12:07:07;27.37;;;18.77;;
13868;SDS011;7004;48.206;16.402;2024-03-07T12:09:39;30.10;;;20.27;;
13868;SDS011;7004;48.206;16.402;2024-03-07T12:12:05;29.27;;;20.00;;
13868;SDS011;7004;48.206;16.402;2024-03-07T12:14:34;33.23;;;20.70;;
13868;SDS011;7004;48.206;16.402;2024-03-07T12:17:01;31.77;;;21.13;;
13868;SDS011;7004;48.206;16.402;2024-03-07T12:19:30;31.47;;;20.47;;
13868;SDS011;7004;48.206;16.402;2024-03-07T12:22:01;31.30;;;20.40;;
13868;SDS011;7004;48.206;16.402;2024-03-07T12:24:28;28.77;;;19.97;;
13868;SDS011;7004;48.206;16.402;2024-03-07T12:27:04;29.03;;;20.00;;
13868;SDS011;7004;48.206;16.402;2024-03-07T12:29:35;32.13;;;20.73;;
13868;SDS011;7004;48.206;16.402;2024-03-07T12:32:06;32.80;;;21.23;;
13868;SDS011;7004;48.206;16.402;2024-03-07T12:34:34;34.40;;;21.27;;
13868;SDS011;7004;48.206;16.402;2024-03-07T12:37:06;31.77;;;21.33;;
13868;SDS011;7004;48.206;16.402;2024-03-07T12:39:34;30.17;;;21.63;;
13868;SDS011;7004;48.206;16.402;2024-03-07T12:42:04;33.90;;;20.70;;
13868;SDS011;7004;48.206;16.402;2024-03-07T12:44:41;31.60;;;21.30;;
13868;SDS011;7004;48.206;16.402;2024-03-07T12:47:14;31.40;;;20.27;;
13868;SDS011;7004;48.206;16.402;2024-03-07T12:49:43;29.10;;;19.87;;
13868;SDS011;7004;48.206;16.402;2024-03-07T12:52:10;29.50;;;19.93;;
13868;SDS011;7004;48.206;16.402;2024-03-07T12:54:40;29.13;;;20.07;;
13868;SDS011;7004;48.206;16.402;2024-03-07T12:59:40;28.87;;;20.23;;
13868;SDS011;7004;48.206;16.402;2024-03-07T13:02:07;31.17;;;20.63;;
13868;SDS011;7004;48.206;16.402;2024-03-07T13:04:34;36.30;;;21.83;;
13868;SDS011;7004;48.206;16.402;2024-03-07T13:07:03;28.00;;;19.63;;
13868;SDS011;7004;48.206;16.402;2024-03-07T13:09:30;32.03;;;21.20;;
13868;SDS011;7004;48.206;16.402;2024-03-07T13:11:58;32.43;;;20.90;;
13868;SDS011;7004;48.206;16.402;2024-03-07T13:14:29;33.87;;;20.90;;
13868;SDS011;7004;48.206;16.402;2024-03-07T13:16:59;31.60;;;19.40;;
13868;SDS011;7004;48.206;16.402;2024-03-07T13:19:26;35.43;;;21.03;;
13868;SDS011;7004;48.206;16.402;2024-03-07T13:21:54;30.93;;;19.60;;
13868;SDS011;7004;48.206;16.402;2024-03-07T13:24:21;28.43;;;20.03;;
13868;SDS011;7004;48.206;16.402;2024-03-07T13:26:52;30.43;;;19.77;;
13868;SDS011;7004;48.206;16.402;2024-03-07T13:29:19;29.97;;;21.10;;
13868;SDS011;7004;48.206;16.402;2024-03-07T13:31:49;32.10;;;20.83;;
13868;SDS011;7004;48.206;16.402;2024-03-07T13:34:17;28.77;;;20.30;;
13868;SDS011;7004;48.206;16.402;2024-03-07T13:36:44;33.53;;;20.73;;
13868;SDS011;7004;48.206;16.402;2024-03-07T13:39:11;29.53;;;19.77;;
13868;SDS011;7004;48.206;16.402;2024-03-07T13:41:39;32.50;;;21.40;;
13868;SDS011;7004;48.206;16.402;2024-03-07T13:44:14;33.57;;;20.90;;
13868;SDS011;7004;48.206;16.402;2024-03-07T13:46:41;30.70;;;20.37;;
13868;SDS011;7004;48.206;16.402;2024-03-07T13:49:07;34.90;;;21.60;;
13868;SDS011;7004;48.206;16.402;2024-03-07T13:51:37;34.93;;;20.70;;
13868;SDS011;7004;48.206;16.402;2024-03-07T13:54:21;31.43;;;21.57;;
13868;SDS011;7004;48.206;16.402;2024-03-07T14:00:15;35.70;;;23.37;;
13868;SDS011;7004;48.206;16.402;2024-03-07T14:03:30;32.33;;;23.27;;
13868;SDS011;7004;48.206;16.402;2024-03-07T14:06:37;32.70;;;21.70;;
13868;SDS011;7004;48.206;16.402;2024-03-07T14:19:13;30.83;;;20.17;;
13868;SDS011;7004;48.206;16.402;2024-03-07T14:28:05;30.23;;;20.67;;
13868;SDS011;7004;48.206;16.402;2024-03-07T14:30:54;31.83;;;20.23;;
13868;SDS011;7004;48.206;16.402;2024-03-07T14:33:27;32.20;;;19.53;;
13868;SDS011;7004;48.206;16.402;2024-03-07T14:36:16;28.70;;;19.57;;
13868;SDS011;7004;48.206;16.402;2024-03-07T14:38:49;29.43;;;20.33;;
13868;SDS011;7004;48.206;16.402;2024-03-07T14:44:18;27.63;;;19.00;;
13868;SDS011;7004;48.206;16.402;2024-03-07T14:46:46;29.70;;;19.00;;
13868;SDS011;7004;48.206;16.402;2024-03-07T14:49:22;30.93;;;19.77;;
13868;SDS011;7004;48.206;16.402;2024-03-07T14:51:49;29.77;;;19.83;;
13868;SDS011;7004;48.206;16.402;2024-03-07T14:54:21;28.43;;;19.80;;
13868;SDS011;7004;48.206;16.402;2024-03-07T14:56:47;26.97;;;20.53;;
13868;SDS011;7004;48.206;16.402;2024-03-07T14:59:13;28.80;;;19.00;;
13868;SDS011;7004;48.206;16.402;2024-03-07T15:01:41;27.60;;;18.93;;
13868;SDS011;7004;48.206;16.402;2024-03-07T15:04:07;33.30;;;20.37;;